createdAt,value
2019-04-07T00:00:55.373Z,12.68
2019-04-07T00:03:27.817Z,10.13
2019-04-07T00:05:59.846Z,16.00
2019-04-07T00:08:31.745Z,13.00
2019-04-07T00:11:04.651Z,10.32
2019-04-07T00:13:36.692Z,14.47
2019-04-07T00:16:09.783Z,8.60
2019-04-07T00:18:41.751Z,10.93
2019-04-07T00:21:13.725Z,11.50
2019-04-07T00:23:45.659Z,10.88
2019-04-07T00:26:17.593Z,10.23
2019-04-07T00:28:49.847Z,10.32
2019-04-07T00:31:21.805Z,11.70
2019-04-07T00:33:53.719Z,10.80
2019-04-07T00:36:25.851Z,8.58
2019-04-07T00:38:57.779Z,10.32
2019-04-07T00:41:29.976Z,14.70
2019-04-07T00:44:02.912Z,12.58
2019-04-07T00:46:35.538Z,10.90
2019-04-07T00:49:08.317Z,10.68
2019-04-07T00:51:41.013Z,12.07
2019-04-07T00:54:13.223Z,13.43
2019-04-07T00:56:45.508Z,18.15
2019-04-07T00:59:18.229Z,10.85
2019-04-07T01:01:50.416Z,19.60
2019-04-07T01:04:22.709Z,13.00
2019-04-07T01:06:54.859Z,15.13
2019-04-07T01:09:26.890Z,17.15
2019-04-07T01:11:58.824Z,15.18
2019-04-07T01:14:31.325Z,15.15
2019-04-07T01:17:04.296Z,11.20
2019-04-07T01:19:36.636Z,13.65
2019-04-07T01:22:09.040Z,16.50
2019-04-07T01:24:41.054Z,10.65
2019-04-07T01:27:13.163Z,11.08
2019-04-07T01:29:46.246Z,12.68
2019-04-07T01:32:19.206Z,15.08
2019-04-07T01:34:51.525Z,16.15
2019-04-07T01:37:24.092Z,13.48
2019-04-07T01:39:56.206Z,9.98
2019-04-07T01:42:33.656Z,12.25
2019-04-07T01:45:31.921Z,13.65
2019-04-07T01:48:25.736Z,13.85
2019-04-07T01:51:16.868Z,19.00
2019-04-07T01:54:13.944Z,12.75
2019-04-07T01:57:04.503Z,18.17
2019-04-07T01:59:58.224Z,15.18
2019-04-07T02:02:49.433Z,14.47
2019-04-07T02:05:39.227Z,10.75
2019-04-07T02:08:22.105Z,11.05
2019-04-07T02:11:15.818Z,9.83
2019-04-07T02:14:10.172Z,15.35
2019-04-07T02:16:49.994Z,14.28
2019-04-07T02:19:47.155Z,11.83
2019-04-07T02:22:40.910Z,16.73
2019-04-07T02:25:31.868Z,11.95
2019-04-07T02:28:28.514Z,9.75
2019-04-07T02:31:27.469Z,15.28
2019-04-07T02:34:25.935Z,13.28
2019-04-07T02:37:22.890Z,14.63
2019-04-07T02:40:05.137Z,16.15
2019-04-07T02:42:48.419Z,13.53
2019-04-07T02:45:30.378Z,17.37
2019-04-07T02:48:15.356Z,14.20
2019-04-07T02:51:03.149Z,14.75
2019-04-07T02:53:45.472Z,13.85
2019-04-07T02:56:33.800Z,19.42
2019-04-07T02:59:10.756Z,14.98
2019-04-07T03:02:08.163Z,10.45
2019-04-07T03:05:04.797Z,12.18
2019-04-07T03:07:58.296Z,8.33
2019-04-07T03:10:47.531Z,10.40
2019-04-07T03:13:41.925Z,14.98
2019-04-07T03:16:25.316Z,14.35
2019-04-07T03:19:11.306Z,9.65
2019-04-07T03:22:11.216Z,11.60
2019-04-07T03:25:09.935Z,8.60
2019-04-07T03:27:51.366Z,19.05
2019-04-07T03:30:38.569Z,12.70
2019-04-07T03:33:22.748Z,10.18
2019-04-07T03:36:06.829Z,9.23
2019-04-07T03:38:59.439Z,19.05
2019-04-07T03:41:59.026Z,13.65
2019-04-07T03:44:53.278Z,11.93
2019-04-07T03:47:42.429Z,11.05
2019-04-07T03:50:51.557Z,17.73
2019-04-07T03:53:42.583Z,14.73
2019-04-07T03:56:37.197Z,17.40
2019-04-07T03:59:26.923Z,10.80
2019-04-07T04:02:12.308Z,17.30
2019-04-07T04:04:55.644Z,10.40
2019-04-07T04:07:49.514Z,12.30
2019-04-07T04:10:40.802Z,11.53
2019-04-07T04:13:37.935Z,11.57
2019-04-07T04:16:19.983Z,12.55
2019-04-07T04:18:52.624Z,10.45
2019-04-07T04:21:24.517Z,12.05
2019-04-07T04:23:57.621Z,12.85
2019-04-07T04:26:29.779Z,15.70
2019-04-07T04:29:03.681Z,14.23
2019-04-07T04:31:36.771Z,14.33
2019-04-07T04:34:09.832Z,13.08
2019-04-07T04:36:41.929Z,13.43
2019-04-07T04:39:18.605Z,11.28
2019-04-07T04:41:48.892Z,10.78
2019-04-07T04:44:22.441Z,12.73
2019-04-07T04:46:54.840Z,11.43
2019-04-07T04:49:27.106Z,15.05
2019-04-07T04:51:59.065Z,10.85
2019-04-07T04:54:31.900Z,10.30
2019-04-07T04:57:06.452Z,12.73
2019-04-07T04:59:37.543Z,13.55
2019-04-07T05:02:10.600Z,13.28
2019-04-07T05:04:44.704Z,13.08
2019-04-07T05:07:17.054Z,15.05
2019-04-07T05:09:52.874Z,13.88
2019-04-07T05:12:23.472Z,10.95
2019-04-07T05:14:55.966Z,15.55
2019-04-07T05:17:28.821Z,12.50
2019-04-07T05:20:01.169Z,14.83
2019-04-07T05:22:33.369Z,18.90
2019-04-07T05:25:06.887Z,14.65
2019-04-07T05:27:39.234Z,14.53
2019-04-07T05:30:12.319Z,17.55
2019-04-07T05:32:44.851Z,14.28
2019-04-07T05:35:17.486Z,13.25
2019-04-07T05:37:59.964Z,16.75
2019-04-07T05:40:23.191Z,12.63
2019-04-07T05:42:55.516Z,13.72
2019-04-07T05:45:27.977Z,16.45
2019-04-07T05:48:00.420Z,13.43
2019-04-07T05:50:32.661Z,18.02
2019-04-07T05:53:06.836Z,17.00
2019-04-07T05:55:39.359Z,13.68
2019-04-07T05:58:11.980Z,13.80
2019-04-07T06:00:47.021Z,18.00
2019-04-07T06:03:20.355Z,14.13
2019-04-07T06:05:52.869Z,16.05
2019-04-07T06:08:34.039Z,16.97
2019-04-07T06:11:01.544Z,20.77
2019-04-07T06:13:35.600Z,16.97
2019-04-07T06:16:08.024Z,15.83
2019-04-07T06:18:40.031Z,19.30
2019-04-07T06:21:14.148Z,19.48
2019-04-07T06:23:45.581Z,13.43
2019-04-07T06:26:17.719Z,22.17
2019-04-07T06:28:54.619Z,22.15
2019-04-07T06:31:26.319Z,23.05
2019-04-07T06:33:59.487Z,16.05
2019-04-07T06:36:31.995Z,22.55
2019-04-07T06:39:07.192Z,20.20
2019-04-07T06:41:39.339Z,19.80
2019-04-07T06:44:13.812Z,17.40
2019-04-07T06:47:10.003Z,18.62
2019-04-07T06:50:07.413Z,18.95
2019-04-07T06:52:56.919Z,18.37
2019-04-07T06:55:37.014Z,22.20
2019-04-07T06:58:24.278Z,14.70
2019-04-07T07:01:15.385Z,15.90
2019-04-07T07:04:09.264Z,18.70
2019-04-07T07:07:00.524Z,19.42
2019-04-07T07:10:00.974Z,15.60
2019-04-07T07:13:09.334Z,16.42
2019-04-07T07:15:57.309Z,20.32
2019-04-07T07:18:40.911Z,18.45
2019-04-07T07:21:36.336Z,22.67
2019-04-07T07:24:06.180Z,13.68
2019-04-07T07:26:38.573Z,18.30
2019-04-07T07:29:13.243Z,15.13
2019-04-07T07:31:44.867Z,17.57
2019-04-07T07:34:18.727Z,18.82
2019-04-07T07:36:53.435Z,18.82
2019-04-07T07:39:25.123Z,16.52
2019-04-07T07:41:57.078Z,14.03
2019-04-07T07:44:28.999Z,21.82
2019-04-07T07:47:01.555Z,15.55
2019-04-07T07:49:36.112Z,15.48
2019-04-07T07:52:07.512Z,14.18
2019-04-07T07:54:39.477Z,17.27
2019-04-07T07:57:11.421Z,15.90
2019-04-07T07:59:44.044Z,21.40
2019-04-07T08:02:19.440Z,14.35
2019-04-07T08:04:51.077Z,21.05
2019-04-07T08:07:23.643Z,15.50
2019-04-07T08:09:56.813Z,16.00
2019-04-07T08:12:34.435Z,16.67
2019-04-07T08:15:04.946Z,18.95
2019-04-07T08:17:37.665Z,15.68
2019-04-07T08:20:11.367Z,16.42
2019-04-07T08:22:44.983Z,13.05
2019-04-07T08:25:20.394Z,13.98
2019-04-07T08:27:50.907Z,13.83
2019-04-07T08:30:22.963Z,17.73
2019-04-07T08:32:57.644Z,15.45
2019-04-07T08:35:28.882Z,15.88
2019-04-07T08:38:01.476Z,15.40
2019-04-07T08:40:36.532Z,15.85
2019-04-07T08:43:08.261Z,18.85
2019-04-07T08:45:41.434Z,15.13
2019-04-07T08:48:13.411Z,10.55
2019-04-07T08:50:45.372Z,17.75
2019-04-07T08:53:17.346Z,18.25
2019-04-07T08:55:52.029Z,11.80
2019-04-07T08:58:28.431Z,16.02
2019-04-07T09:00:58.538Z,14.03
2019-04-07T09:03:31.408Z,14.28
2019-04-07T09:06:04.576Z,14.25
2019-04-07T09:08:38.002Z,12.37
2019-04-07T09:11:13.511Z,11.38
2019-04-07T09:13:51.547Z,16.70
2019-04-07T09:16:57.839Z,14.43
2019-04-07T09:20:00.762Z,12.53
2019-04-07T09:22:38.920Z,10.40
2019-04-07T09:25:31.965Z,9.33
2019-04-07T09:28:25.437Z,12.43
2019-04-07T09:31:25.607Z,8.58
2019-04-07T09:34:18.901Z,11.38
2019-04-07T09:36:57.515Z,19.73
2019-04-07T09:39:58.447Z,14.03
2019-04-07T09:42:47.226Z,12.58
2019-04-07T09:45:39.420Z,9.13
2019-04-07T09:48:50.038Z,14.05
2019-04-07T09:51:41.351Z,10.13
2019-04-07T09:54:30.658Z,6.30
2019-04-07T09:57:35.484Z,9.63
2019-04-07T10:00:17.077Z,11.53
2019-04-07T10:03:26.313Z,11.55
2019-04-07T10:06:09.859Z,13.13
2019-04-07T10:09:04.078Z,17.85
2019-04-07T10:12:04.866Z,19.98
2019-04-07T10:14:55.269Z,14.20
2019-04-07T10:17:45.176Z,55.12
2019-04-07T10:20:35.223Z,20.80
2019-04-07T10:23:23.166Z,10.65
2019-04-07T10:26:23.379Z,61.15
2019-04-07T10:29:00.613Z,47.10
2019-04-07T10:31:55.343Z,25.32
2019-04-07T10:34:55.475Z,44.23
2019-04-07T10:37:45.130Z,23.65
2019-04-07T10:40:40.043Z,52.88
2019-04-07T10:43:20.031Z,26.55
2019-04-07T10:46:13.639Z,12.78
2019-04-07T10:48:53.662Z,17.77
2019-04-07T10:51:51.277Z,12.37
2019-04-07T10:54:41.528Z,18.98
2019-04-07T10:57:24.869Z,10.50
2019-04-07T11:00:27.823Z,7.53
2019-04-07T11:03:23.114Z,9.93
2019-04-07T11:06:14.954Z,13.55
2019-04-07T11:09:17.876Z,12.23
2019-04-07T11:12:12.441Z,13.40
2019-04-07T11:15:03.210Z,9.60
2019-04-07T11:18:04.167Z,9.95
2019-04-07T11:20:48.862Z,10.23
2019-04-07T11:23:43.354Z,9.50
2019-04-07T11:26:45.926Z,8.25
2019-04-07T11:29:45.596Z,12.25
2019-04-07T11:32:30.759Z,9.98
2019-04-07T11:35:13.765Z,8.48
2019-04-07T11:38:14.687Z,13.35
2019-04-07T11:41:27.221Z,16.60
2019-04-07T11:44:10.486Z,8.95
2019-04-07T11:47:03.771Z,8.65
2019-04-07T11:49:48.522Z,11.50
2019-04-07T11:52:26.656Z,15.78
2019-04-07T11:55:10.156Z,9.95
2019-04-07T11:58:06.672Z,11.45
2019-04-07T12:00:51.402Z,7.50
2019-04-07T12:03:40.574Z,7.22
2019-04-07T12:06:49.911Z,8.58
2019-04-07T12:09:28.371Z,14.60
2019-04-07T12:12:18.237Z,4.62
2019-04-07T12:15:09.554Z,7.08
2019-04-07T12:18:05.209Z,6.45
2019-04-07T12:20:48.313Z,6.55
2019-04-07T12:23:33.658Z,6.25
2019-04-07T12:26:24.782Z,10.18
2019-04-07T12:29:22.251Z,9.10
2019-04-07T12:32:25.985Z,7.33
2019-04-07T12:35:23.565Z,7.53
2019-04-07T12:38:13.567Z,6.95
2019-04-07T12:41:15.029Z,6.08
2019-04-07T12:44:02.811Z,6.42
2019-04-07T12:46:46.424Z,4.20
2019-04-07T12:49:44.473Z,5.67
2019-04-07T12:52:33.485Z,7.28
2019-04-07T12:55:26.900Z,5.40
2019-04-07T12:58:11.658Z,3.42
2019-04-07T13:01:21.161Z,6.15
2019-04-07T13:04:21.038Z,3.83
2019-04-07T13:07:15.103Z,4.80
2019-04-07T13:10:04.587Z,4.87
2019-04-07T13:12:57.958Z,4.22
2019-04-07T13:15:52.045Z,4.75
2019-04-07T13:18:35.603Z,3.12
2019-04-07T13:21:46.680Z,6.00
2019-04-07T13:24:35.646Z,6.75
2019-04-07T13:27:16.843Z,4.92
2019-04-07T13:29:54.241Z,4.55
2019-04-07T13:32:41.630Z,6.10
2019-04-07T13:35:40.629Z,6.97
2019-04-07T13:38:38.296Z,3.17
2019-04-07T13:41:47.579Z,4.62
2019-04-07T13:44:48.390Z,4.50
2019-04-07T13:47:27.027Z,3.10
2019-04-07T13:50:19.798Z,3.70
2019-04-07T13:53:08.972Z,4.20
2019-04-07T13:55:49.767Z,6.37
2019-04-07T13:58:35.070Z,4.12
2019-04-07T14:01:40.769Z,3.62
2019-04-07T14:04:32.948Z,5.22
2019-04-07T14:07:42.736Z,4.00
2019-04-07T14:10:37.246Z,4.60
2019-04-07T14:13:28.266Z,4.92
2019-04-07T14:16:37.711Z,2.20
2019-04-07T14:19:28.870Z,3.20
2019-04-07T14:22:29.715Z,3.75
2019-04-07T14:25:24.585Z,8.18
2019-04-07T14:28:12.991Z,12.75
2019-04-07T14:31:07.611Z,13.88
2019-04-07T14:33:58.927Z,10.93
2019-04-07T14:36:58.960Z,10.05
2019-04-07T14:39:39.344Z,6.75
2019-04-07T14:42:29.438Z,5.87
2019-04-07T14:45:24.911Z,4.78
2019-04-07T14:48:09.836Z,5.67
2019-04-07T14:51:07.234Z,6.35
2019-04-07T14:54:16.413Z,3.42
2019-04-07T14:57:09.058Z,4.45
2019-04-07T14:59:55.397Z,5.12
2019-04-07T15:02:29.101Z,4.55
2019-04-07T15:05:13.723Z,5.33
2019-04-07T15:08:01.285Z,4.60
2019-04-07T15:10:37.800Z,4.25
2019-04-07T15:13:13.073Z,5.17
2019-04-07T15:15:45.050Z,5.58
2019-04-07T15:18:21.451Z,5.60
2019-04-07T15:20:57.312Z,4.58
2019-04-07T15:23:32.283Z,4.25
2019-04-07T15:26:03.819Z,5.92
2019-04-07T15:28:35.803Z,4.78
2019-04-07T15:31:08.576Z,4.85
2019-04-07T15:33:40.987Z,4.20
2019-04-07T15:36:13.026Z,5.35
2019-04-07T15:38:45.558Z,9.48
2019-04-07T15:41:19.082Z,6.40
2019-04-07T15:43:52.253Z,2.72
2019-04-07T15:46:25.697Z,4.92
2019-04-07T15:48:58.312Z,5.75
2019-04-07T15:51:34.127Z,3.30
2019-04-07T15:54:04.400Z,5.30
2019-04-07T15:56:36.834Z,6.28
2019-04-07T15:59:09.904Z,7.35
2019-04-07T16:01:43.084Z,8.13
2019-04-07T16:04:15.988Z,10.48
2019-04-07T16:06:50.308Z,9.95
2019-04-07T16:09:34.624Z,11.78
2019-04-07T16:11:58.861Z,14.33
2019-04-07T16:14:30.974Z,14.68
2019-04-07T16:17:07.284Z,18.40
2019-04-07T16:19:43.081Z,13.78
2019-04-07T16:22:14.563Z,18.42
2019-04-07T16:24:47.544Z,17.75
2019-04-07T16:27:19.744Z,14.63
2019-04-07T16:29:54.760Z,17.70
2019-04-07T16:32:29.111Z,16.57
2019-04-07T16:35:01.721Z,19.57
2019-04-07T16:37:34.804Z,14.70
2019-04-07T16:40:11.454Z,20.05
2019-04-07T16:42:54.546Z,20.50
2019-04-07T16:45:17.961Z,18.67
2019-04-07T16:47:51.548Z,13.83
2019-04-07T16:50:23.672Z,12.93
2019-04-07T16:52:55.893Z,17.30
2019-04-07T16:55:37.359Z,23.42
2019-04-07T16:58:10.310Z,21.30
2019-04-07T17:00:42.935Z,23.62
2019-04-07T17:03:15.450Z,24.65
2019-04-07T17:05:48.588Z,32.73
2019-04-07T17:08:22.474Z,27.10
2019-04-07T17:10:55.852Z,25.62
2019-04-07T17:13:38.149Z,23.87
2019-04-07T17:16:05.815Z,26.68
2019-04-07T17:18:41.186Z,22.93
2019-04-07T17:21:16.077Z,25.45
2019-04-07T17:23:48.564Z,21.45
2019-04-07T17:26:23.360Z,23.95
2019-04-07T17:28:56.982Z,20.82
2019-04-07T17:31:31.162Z,29.75
2019-04-07T17:34:07.374Z,35.55
2019-04-07T17:36:39.252Z,30.90
2019-04-07T17:39:28.651Z,28.25
2019-04-07T17:42:01.517Z,25.57
2019-04-07T17:44:59.330Z,27.95
2019-04-07T17:47:39.212Z,19.37
2019-04-07T17:50:33.755Z,16.07
2019-04-07T17:53:26.502Z,18.15
2019-04-07T17:56:20.918Z,19.15
2019-04-07T17:59:28.188Z,17.30
2019-04-07T18:02:34.918Z,27.77
2019-04-07T18:05:24.254Z,32.67
2019-04-07T18:08:09.202Z,31.30
2019-04-07T18:11:07.599Z,29.42
2019-04-07T18:13:59.693Z,28.87
2019-04-07T18:16:49.317Z,26.90
2019-04-07T18:19:38.862Z,30.43
2019-04-07T18:22:42.319Z,33.38
2019-04-07T18:25:34.064Z,26.50
2019-04-07T18:28:23.019Z,32.30
2019-04-07T18:31:05.344Z,29.20
2019-04-07T18:33:56.992Z,25.15
2019-04-07T18:37:01.986Z,31.48
2019-04-07T18:40:03.155Z,31.70
2019-04-07T18:42:55.751Z,30.70
2019-04-07T18:45:54.809Z,33.38
2019-04-07T18:48:59.168Z,26.27
2019-04-07T18:51:50.629Z,25.02
2019-04-07T18:54:37.697Z,31.30
2019-04-07T18:57:48.820Z,27.42
2019-04-07T19:00:38.109Z,21.93
2019-04-07T19:03:29.684Z,32.95
2019-04-07T19:06:14.824Z,30.00
2019-04-07T19:09:14.180Z,23.50
2019-04-07T19:12:22.720Z,30.68
2019-04-07T19:15:10.535Z,35.10
2019-04-07T19:17:58.926Z,20.88
2019-04-07T19:20:48.893Z,26.62
2019-04-07T19:23:59.125Z,27.85
2019-04-07T19:27:11.857Z,22.13
2019-04-07T19:30:07.082Z,27.30
2019-04-07T19:33:16.535Z,20.75
2019-04-07T19:36:06.220Z,17.77
2019-04-07T19:39:04.818Z,18.17
2019-04-07T19:42:08.788Z,19.00
2019-04-07T19:45:04.622Z,18.87
2019-04-07T19:47:58.183Z,24.02
2019-04-07T19:51:01.227Z,15.03
2019-04-07T19:54:04.423Z,21.42
2019-04-07T19:56:44.148Z,17.32
2019-04-07T19:59:43.073Z,18.98
2019-04-07T20:02:42.532Z,13.48
2019-04-07T20:05:27.953Z,19.45
2019-04-07T20:08:20.674Z,21.60
2019-04-07T20:11:16.189Z,21.95
2019-04-07T20:14:28.431Z,23.62
2019-04-07T20:17:24.447Z,23.75
2019-04-07T20:20:21.672Z,28.20
2019-04-07T20:23:22.915Z,21.07
2019-04-07T20:26:27.059Z,17.23
2019-04-07T20:29:27.989Z,24.80
2019-04-07T20:32:25.193Z,25.55
2019-04-07T20:35:24.791Z,25.43
2019-04-07T20:38:27.262Z,16.87
2019-04-07T20:41:19.585Z,20.02
2019-04-07T20:44:11.687Z,16.80
2019-04-07T20:47:14.241Z,14.93
2019-04-07T20:50:01.339Z,15.08
2019-04-07T20:53:21.772Z,13.22
2019-04-07T20:56:18.648Z,17.73
2019-04-07T20:59:18.850Z,20.80
2019-04-07T21:02:29.361Z,13.85
2019-04-07T21:05:38.989Z,15.10
2019-04-07T21:08:34.200Z,14.45
2019-04-07T21:11:29.071Z,15.90
2019-04-07T21:14:15.967Z,14.28
2019-04-07T21:17:10.804Z,10.40
2019-04-07T21:19:56.273Z,16.30
2019-04-07T21:22:54.006Z,13.60
2019-04-07T21:25:47.936Z,9.08
2019-04-07T21:28:37.812Z,16.15
2019-04-07T21:31:27.031Z,12.03
2019-04-07T21:34:29.572Z,11.03
2019-04-07T21:37:13.908Z,12.25
2019-04-07T21:40:05.385Z,14.83
2019-04-07T21:42:52.087Z,12.58
2019-04-07T21:45:56.522Z,12.00
2019-04-07T21:48:47.477Z,9.98
2019-04-07T21:51:39.872Z,10.13
2019-04-07T21:54:37.277Z,6.12
2019-04-07T21:57:29.179Z,9.93
2019-04-07T22:00:32.879Z,9.83
2019-04-07T22:03:29.013Z,6.47
2019-04-07T22:06:23.195Z,5.28
2019-04-07T22:09:03.100Z,9.05
2019-04-07T22:11:36.765Z,6.58
2019-04-07T22:14:10.426Z,4.12
2019-04-07T22:16:43.455Z,6.10
2019-04-07T22:19:16.674Z,4.25
2019-04-07T22:21:53.270Z,4.40
2019-04-07T22:24:23.144Z,5.47
2019-04-07T22:26:55.477Z,4.70
2019-04-07T22:29:27.403Z,5.08
2019-04-07T22:31:59.825Z,5.72
2019-04-07T22:34:32.655Z,9.88
2019-04-07T22:37:06.853Z,5.20
2019-04-07T22:39:39.716Z,7.87
2019-04-07T22:42:15.196Z,12.80
2019-04-07T22:44:47.375Z,8.10
2019-04-07T22:47:21.124Z,10.28
2019-04-07T22:49:55.302Z,14.63
2019-04-07T22:52:36.230Z,16.02
2019-04-07T22:55:09.783Z,22.62
2019-04-07T22:57:42.993Z,14.98
2019-04-07T23:00:19.749Z,17.25
2019-04-07T23:02:54.126Z,14.73
2019-04-07T23:05:26.430Z,17.50
2019-04-07T23:08:04.058Z,18.85
2019-04-07T23:10:41.004Z,23.30
2019-04-07T23:13:15.396Z,18.50
2019-04-07T23:15:50.276Z,17.98
2019-04-07T23:18:22.948Z,10.18
2019-04-07T23:20:55.634Z,18.17
2019-04-07T23:23:28.194Z,15.45
2019-04-07T23:26:00.652Z,15.32
2019-04-07T23:28:32.739Z,14.33
2019-04-07T23:31:05.708Z,19.27
2019-04-07T23:33:38.256Z,16.82
2019-04-07T23:36:11.546Z,20.05
2019-04-07T23:38:43.708Z,17.40
2019-04-07T23:41:15.930Z,19.75
2019-04-07T23:43:47.941Z,25.20
2019-04-07T23:46:24.735Z,21.37
2019-04-07T23:48:54.792Z,22.25
2019-04-07T23:51:28.723Z,21.20
2019-04-07T23:54:10.906Z,12.35
2019-04-07T23:56:44.801Z,21.23
2019-04-07T23:59:16.998Z,14.70
